Latest Coastal Weather Observations for Red Rocks Point

IDW60701

Issued at 5:55 pm WST Thursday 24 April 2014 (issued every 10 minutes, with the page automatically refreshed every 10 minutes)

About coastal observations | Map of coastal stations | Coastal observations for WA | Marine services | Other Formats
Station Details ID: 011053 Name: RED ROCKS POINT Lat: -32.20 Lon: 127.53 Height: 3.1 m
Data from the previous 72 hours. | See also: Recent months for locations in Western Australia
Date/Time
WST
Temp

°C
Wind Pressure Rain
since 9am
mm
Weather Cloud Vis
km
Sea
Height
m
Swell
Dir
 
Speed
knots
Gust
knots
hPa Trend Height
m
Period
s
Dir
24/05:30pm 19.9 ENE 21 24 1013.8 - 0.0 - - - - - - -
24/05:00pm 20.2 E 19 23 1013.8 - 0.0 - - - - - - -
24/04:30pm 20.1 ENE 19 22 1013.8 - 0.0 - - - - - - -
24/04:00pm 20.2 E 19 22 1013.8 - 0.0 - - - - - - -
24/03:30pm 20.5 E 19 22 1013.9 - 0.0 - - - - - - -
24/03:00pm 20.5 E 19 22 1014.1 - 0.0 - - - - - - -
24/02:30pm 20.6 E 18 22 1014.1 - 0.0 - - - - - - -
24/02:00pm 20.8 E 17 19 1014.5 - 0.0 - - - - - - -
24/01:30pm 21.1 E 17 20 1014.7 - 0.0 - - - - - - -
24/01:00pm 21.1 E 16 19 1015.1 - 0.0 - - - - - - -
24/12:30pm 21.0 E 17 18 1015.5 - 0.0 - - - - - - -
24/12:00pm 21.1 E 15 18 1016.3 - 0.0 - - - - - - -
24/11:30am 21.2 E 14 17 1016.9 - 0.0 - - - - - - -
24/11:00am 21.1 E 15 16 1017.6 - 0.0 - - - - - - -
24/10:30am 21.0 E 13 15 1018.1 - 0.0 - - - - - - -
24/10:00am 20.7 E 12 15 1018.3 - 0.0 - - - - - - -
24/09:30am 20.6 E 12 14 1018.7 - 0.0 - - - - - - -
24/09:00am 20.4 ENE 11 15 1018.9 - 0.0 - - - - - - -
24/08:30am 19.7 NNE 8 12 1019.2 - 0.0 - - - - - - -
24/08:00am 17.3 NNE 8 12 1019.4 - 0.0 - - - - - - -
24/07:30am 15.0 N 9 11 1019.3 - 0.0 - - - - - - -
24/07:00am 13.2 N 8 10 1018.9 - 0.0 - - - - - - -
24/06:30am 12.0 N 9 11 1018.4 - 0.0 - - - - - - -
24/06:00am 12.3 N 9 11 1018.2 - 0.0 - - - - - - -
24/05:30am 12.2 N 8 9 1018.0 - 0.0 - - - - - - -
24/05:00am 12.4 N 8 9 1017.8 - 0.0 - - - - - - -
24/04:30am 12.3 N 8 9 1017.5 - 0.0 - - - - - - -
24/04:00am 12.6 N 7 9 1017.4 - 0.0 - - - - - - -
24/03:30am 13.0 N 7 9 1017.5 - 0.0 - - - - - - -
24/03:00am 12.7 N 8 9 1017.4 - 0.0 - - - - - - -
24/02:30am 12.8 CALM 0 0 1017.5 - 0.0 - - - - - - -
24/02:00am 13.3 N 4 5 1017.6 - 0.0 - - - - - - -
24/01:30am 13.1 CALM 0 0 1017.7 - 0.0 - - - - - - -
24/01:00am 13.3 N 4 6 1017.9 - 0.0 - - - - - - -
24/12:30am 13.8 N 5 5 1018.0 - 0.0 - - - - - - -
24/12:00am 13.9 N 5 6 1018.0 - 0.0 - - - - - - -
 
Date/Time
WST
Temp

°C
Wind Pressure Rain
since 9am
mm
Weather Cloud Vis
km
Sea
Height
m
Swell
Dir
 
Speed
knots
Gust
knots
hPa Trend Height
m
Period
s
Dir
23/11:30pm 13.8 N 5 6 1017.9 - 0.0 - - - - - - -
23/11:00pm 13.4 N 5 6 1017.9 - 0.0 - - - - - - -
23/10:30pm 13.6 N 4 5 1018.0 - 0.0 - - - - - - -
23/10:00pm 13.8 N 5 6 1018.1 - 0.0 - - - - - - -
23/09:30pm 14.0 NNW 5 6 1018.1 - 0.0 - - - - - - -
23/09:21pm 14.6 N 6 7 1018.2 - 0.0 - - - - - - -
23/09:00pm 19.6 E 9 11 1018.1 - 0.0 - - - - - - -
23/08:30pm 19.6 ESE 9 10 1017.9 - 0.0 - - - - - - -
23/08:00pm 19.5 ESE 10 11 1017.6 - 0.0 - - - - - - -
23/07:30pm 19.7 SE 9 11 1017.4 - 0.0 - - - - - - -
23/07:00pm 19.7 SE 10 11 1017.2 - 0.0 - - - - - - -
23/06:30pm 19.9 SSE 9 10 1017.1 - 0.0 - - - - - - -
23/06:00pm 19.7 SSE 10 11 1017.0 - 0.0 - - - - - - -
23/05:30pm 19.7 S 10 11 1016.9 - 0.0 - - - - - - -
23/05:00pm 19.4 SSW 8 10 1016.5 - 0.0 - - - - - - -
23/04:30pm 20.0 SSW 7 10 1016.3 - 0.0 - - - - - - -
23/04:00pm 21.1 SSW 9 11 1016.0 - 0.0 - - - - - - -
23/03:30pm 21.7 SSW 9 13 1015.8 - 0.0 - - - - - - -
23/03:00pm 22.1 S 8 12 1015.7 - 0.0 - - - - - - -
23/02:30pm 21.8 S 8 9 1015.6 - 0.0 - - - - - - -
23/02:00pm 22.5 S 9 10 1015.6 - 0.0 - - - - - - -
23/01:30pm 22.7 S 10 11 1015.5 - 0.0 - - - - - - -
23/01:00pm 22.9 S 10 11 1015.6 - 0.0 - - - - - - -
23/12:30pm 22.8 S 11 12 1015.9 - 0.0 - - - - - - -
23/12:00pm 22.7 S 11 12 1016.3 - 0.0 - - - - - - -
23/11:30am 23.5 SSE 8 9 1016.7 - 0.0 - - - - - - -
23/11:00am 23.6 S 6 8 1017.1 - 0.0 - - - - - - -
23/10:30am 23.5 NW 4 8 1017.4 - 0.0 - - - - - - -
23/10:00am 23.1 NNW 5 9 1017.8 - 0.0 - - - - - - -
23/09:30am 21.7 N 8 11 1018.2 - 0.0 - - - - - - -
23/09:00am 20.5 N 8 12 1018.4 - 0.0 - - - - - - -
23/08:30am 18.6 N 9 13 1018.5 - 0.0 - - - - - - -
23/08:00am 16.9 N 7 10 1018.7 - 0.0 - - - - - - -
23/07:30am 14.3 N 9 12 1018.6 - 0.0 - - - - - - -
23/07:00am 12.5 N 9 12 1018.3 - 0.0 - - - - - - -
23/06:30am 11.5 N 9 12 1018.1 - 0.0 - - - - - - -
23/06:00am 11.1 N 9 11 1018.2 - 0.0 - - - - - - -
23/05:30am 11.1 N 8 10 1017.6 - 0.0 - - - - - - -
23/05:00am 10.3 N 8 9 1018.0 - 0.0 - - - - - - -
23/04:30am 10.3 N 9 10 1018.3 - 0.0 - - - - - - -
23/04:00am 11.1 NNW 8 9 1018.2 - 0.0 - - - - - - -
23/03:30am 11.0 NNW 8 9 1018.3 - 0.0 - - - - - - -
23/03:00am 11.0 NNW 8 9 1018.4 - 0.0 - - - - - - -
23/02:30am 11.0 NNW 9 11 1018.4 - 0.0 - - - - - - -
23/02:00am 10.9 N 9 10 1018.5 - 0.0 - - - - - - -
23/01:30am 11.6 N 9 10 1018.4 - 0.0 - - - - - - -
23/01:00am 11.7 N 8 9 1018.4 - 0.0 - - - - - - -
23/12:30am 12.4 N 7 9 1018.5 - 0.0 - - - - - - -
23/12:00am 13.1 N 6 7 1018.6 - 0.0 - - - - - - -
 
Date/Time
WST
Temp

°C
Wind Pressure Rain
since 9am
mm
Weather Cloud Vis
km
Sea
Height
m
Swell
Dir
 
Speed
knots
Gust
knots
hPa Trend Height
m
Period
s
Dir
22/11:30pm 14.5 N 5 6 1018.8 - 0.0 - - - - - - -
22/11:00pm 17.5 E 7 8 1018.9 - 0.0 - - - - - - -
22/10:30pm 17.8 E 7 10 1019.3 - 0.0 - - - - - - -
22/10:00pm 17.5 SE 7 8 1019.7 - 0.0 - - - - - - -
22/09:30pm 17.7 SE 7 8 1020.0 - 0.0 - - - - - - -
22/09:00pm 17.7 SE 8 10 1020.2 - 0.0 - - - - - - -
22/08:30pm 17.7 SSE 8 10 1020.3 - 0.0 - - - - - - -
22/08:00pm 17.7 SE 9 11 1020.3 - 0.0 - - - - - - -
22/07:30pm 17.8 SE 9 11 1020.2 - 0.0 - - - - - - -
22/07:00pm 17.9 SSE 10 12 1020.2 - 0.0 - - - - - - -
22/06:30pm 17.8 SSE 10 13 1020.1 - 0.0 - - - - - - -
22/06:00pm 17.9 SSE 9 12 1019.9 - 0.0 - - - - - - -
22/05:30pm 17.9 SSE 9 12 1019.7 - 0.0 - - - - - - -
22/05:00pm 18.2 SSE 10 12 1019.4 - 0.0 - - - - - - -
22/04:30pm 18.4 SSE 9 11 1019.3 - 0.0 - - - - - - -
22/04:00pm 19.1 SSE 9 11 1019.2 - 0.0 - - - - - - -
22/03:30pm 19.3 SSE 10 13 1019.2 - 0.0 - - - - - - -
22/03:00pm 19.6 SSE 10 12 1019.3 - 0.0 - - - - - - -
22/02:30pm 19.9 SSE 10 13 1019.3 - 0.0 - - - - - - -
22/02:00pm 20.3 S 11 13 1019.3 - 0.0 - - - - - - -
22/01:30pm 20.7 S 10 12 1019.4 - 0.0 - - - - - - -
22/01:00pm 20.5 S 11 13 1019.4 - 0.0 - - - - - - -
22/12:30pm 20.3 S 11 14 1019.5 - 0.0 - - - - - - -
22/12:00pm 21.1 S 11 14 1019.9 - 0.0 - - - - - - -
22/11:30am 21.4 S 10 13 1020.5 - 0.0 - - - - - - -
22/11:00am 21.2 S 10 12 1020.7 - 0.0 - - - - - - -
22/10:30am 20.6 S 9 11 1021.0 - 0.0 - - - - - - -
22/10:00am 21.1 S 9 11 1021.2 - 0.0 - - - - - - -
22/09:30am 20.9 S 10 13 1021.3 - 0.0 - - - - - - -
22/09:00am 19.8 S 11 13 1021.3 - 0.2 - - - - - - -
22/08:30am 19.9 S 11 14 1021.2 - 0.2 - - - - - - -
22/08:00am 19.0 S 12 14 1021.0 - 0.2 - - - - - - -
22/07:30am 18.8 SSE 12 15 1020.8 - 0.2 - - - - - - -
22/07:00am 18.1 S 10 13 1020.4 - 0.2 - - - - - - -
22/06:30am 17.9 S 12 15 1020.0 - 0.2 - - - - - - -
22/06:00am 17.8 S 13 17 1019.8 - 0.2 - - - - - - -
22/05:30am 17.8 S 13 16 1019.5 - 0.2 - - - - - - -
22/05:00am 17.7 S 14 17 1019.4 - 0.2 - - - - - - -
22/04:30am 17.5 SSW 13 17 1019.2 - 0.2 - - - - - - -
22/04:00am 17.3 S 13 17 1019.0 - 0.2 - - - - - - -
22/03:30am 17.4 S 15 18 1018.7 - 0.2 - - - - - - -
22/03:00am 17.3 SSW 12 15 1018.7 - 0.2 - - - - - - -
22/02:30am 17.1 SSW 11 15 1018.6 - 0.2 - - - - - - -
22/02:00am 17.5 SSW 12 18 1018.6 - 0.2 - - - - - - -
22/01:30am 17.0 SSW 11 14 1018.6 - 0.2 - - - - - - -
22/01:00am 17.6 SW 11 17 1018.8 - 0.2 - - - - - - -
22/12:30am 17.3 SW 10 15 1018.8 - 0.2 - - - - - - -
22/12:00am 17.4 SW 12 17 1018.6 - 0.2 - - - - - - -
 
Date/Time
WST
Temp

°C
Wind Pressure Rain
since 9am
mm
Weather Cloud Vis
km
Sea
Height
m
Swell
Dir
 
Speed
knots
Gust
knots
hPa Trend Height
m
Period
s
Dir
21/11:30pm 17.9 SW 9 13 1018.5 - 0.2 - - - - - - -
21/11:00pm 17.6 SW 10 14 1018.4 - 0.2 - - - - - - -
21/10:30pm 17.7 SW 11 17 1018.4 - 0.2 - - - - - - -
21/10:00pm 17.6 SW 11 15 1018.5 - 0.2 - - - - - - -
21/09:30pm 18.1 SW 14 19 1018.6 - 0.2 - - - - - - -
21/09:00pm 17.7 WSW 12 19 1018.6 - 0.2 - - - - - - -
21/08:30pm 18.5 SW 12 16 1018.4 - 0.0 - - - - - - -
21/08:00pm 18.4 SW 11 16 1018.1 - 0.0 - - - - - - -
21/07:30pm 18.5 SW 11 16 1017.9 - 0.0 - - - - - - -
21/07:00pm 18.4 SW 12 17 1017.4 - 0.0 - - - - - - -
21/06:30pm 18.4 SW 12 18 1017.1 - 0.0 - - - - - - -
21/06:00pm 18.0 WSW 12 20 1016.7 - 0.0 - - - - - - -

Other Formats:

Comma delimited format used in spreadsheet applications
http://www.bom.gov.au/fwo/IDW60701/IDW60701.94644.axf

JavaScript Object Notation format (JSON) in row-major order
http://www.bom.gov.au/fwo/IDW60701/IDW60701.94644.json